Time;durP1;ratioP1;P1;durP2;ratioP2;P2;SDS_P1;SDS_P2;PMS_P1;PMS_P2;Temp;Humidity;BMP_temperature;BMP_pressure;BME280_temperature;BME280_humidity;BME280_pressure;Samples;Min_cycle;Max_cycle;Signal;HPM_P1;HPM_P2
2021/09/24 00:00:19;;;;;;;7.57;3.47;;;;;;;;;;8265733;28;20486;-76
2021/09/24 00:04:27;;;;;;;6.20;2.90;;;;;;;;;;8260388;28;20375;-76
2021/09/24 00:08:33;;;;;;;7.88;2.90;;;;;;;;;;8230450;28;20443;-76
2021/09/24 00:12:39;;;;;;;5.85;3.00;;;;;;;;;;8233941;28;20459;-75
2021/09/24 00:16:45;;;;;;;9.00;3.25;;;;;;;;;;8229769;28;20457;-76
2021/09/24 00:20:50;;;;;;;5.35;3.28;;;;;;;;;;8231372;28;20075;-74
2021/09/24 00:24:55;;;;;;;6.10;3.25;;;;;;;;;;8229279;28;20049;-73
2021/09/24 00:29:00;;;;;;;5.85;3.00;;;;;;;;;;8231680;28;20349;-75
2021/09/24 00:33:05;;;;;;;8.00;3.92;;;;;;;;;;8243986;28;20472;-75
2021/09/24 00:37:10;;;;;;;11.18;3.80;;;;;;;;;;8229004;28;20360;-75
2021/09/24 00:41:16;;;;;;;6.40;3.78;;;;;;;;;;8228931;28;20341;-75
2021/09/24 00:45:21;;;;;;;11.60;4.35;;;;;;;;;;8227541;28;20053;-73
2021/09/24 00:49:26;;;;;;;9.25;4.07;;;;;;;;;;8229275;28;20346;-73
2021/09/24 00:53:32;;;;;;;13.82;4.38;;;;;;;;;;8227728;28;20368;-74
2021/09/24 00:57:38;;;;;;;10.57;3.72;;;;;;;;;;8225213;28;20363;-75
2021/09/24 01:01:43;;;;;;;17.65;5.20;;;;;;;;;;8228838;28;20060;-73
2021/09/24 01:05:49;;;;;;;10.82;4.47;;;;;;;;;;8227454;28;20423;-72
2021/09/24 01:09:57;;;;;;;8.93;3.50;;;;;;;;;;8222913;28;20349;-72
2021/09/24 01:14:02;;;;;;;11.40;3.67;;;;;;;;;;8227789;28;20356;-73
2021/09/24 01:18:08;;;;;;;10.30;3.88;;;;;;;;;;8226012;28;20388;-72
2021/09/24 01:22:13;;;;;;;8.93;3.30;;;;;;;;;;8224535;28;20068;-72
2021/09/24 01:26:18;;;;;;;7.88;2.90;;;;;;;;;;8223886;28;20480;-73
2021/09/24 01:30:32;;;;;;;5.30;2.47;;;;;;;;;;8226274;28;20378;-73
2021/09/24 01:34:38;;;;;;;7.60;2.78;;;;;;;;;;8226673;28;20053;-75
2021/09/24 01:38:43;;;;;;;5.60;2.60;;;;;;;;;;8227018;28;20063;-73
2021/09/24 01:42:54;;;;;;;3.38;1.98;;;;;;;;;;8227475;28;20471;-75
2021/09/24 01:46:59;;;;;;;2.70;1.60;;;;;;;;;;8229960;28;20071;-76
2021/09/24 01:51:04;;;;;;;2.70;1.20;;;;;;;;;;8229927;28;20371;-77
2021/09/24 01:55:11;;;;;;;5.75;1.30;;;;;;;;;;8233487;28;20636;-76
2021/09/24 01:59:16;;;;;;;4.18;0.90;;;;;;;;;;8244337;28;20361;-76
2021/09/24 02:03:24;;;;;;;1.23;0.70;;;;;;;;;;8232711;28;20376;-75
2021/09/24 02:07:28;;;;;;;3.05;0.90;;;;;;;;;;8240160;28;20488;-74
2021/09/24 02:11:33;;;;;;;2.50;0.75;;;;;;;;;;8228210;28;20397;-75
2021/09/24 02:15:39;;;;;;;1.00;0.70;;;;;;;;;;8229704;28;20369;-75
2021/09/24 02:19:44;;;;;;;2.63;0.88;;;;;;;;;;8230446;28;20361;-74
2021/09/24 02:23:50;;;;;;;1.33;0.85;;;;;;;;;;8229982;28;20053;-76
2021/09/24 02:27:55;;;;;;;1.67;1.00;;;;;;;;;;8231097;28;20356;-76
2021/09/24 02:32:00;;;;;;;1.80;1.00;;;;;;;;;;8234190;28;20487;-74
2021/09/24 02:36:08;;;;;;;3.72;0.80;;;;;;;;;;8231881;28;20057;-74
2021/09/24 02:40:13;;;;;;;2.45;0.77;;;;;;;;;;8227395;28;20377;-74
2021/09/24 02:44:18;;;;;;;3.00;0.88;;;;;;;;;;8229588;28;20428;-76
2021/09/24 02:48:25;;;;;;;0.95;0.75;;;;;;;;;;8229111;28;20063;-75
2021/09/24 02:52:29;;;;;;;2.67;1.15;;;;;;;;;;8232888;28;20483;-73
2021/09/24 02:56:34;;;;;;;1.10;0.57;;;;;;;;;;8229904;28;20411;-74
2021/09/24 03:00:39;;;;;;;1.08;0.63;;;;;;;;;;8209439;28;20467;-75
2021/09/24 03:04:45;;;;;;;1.17;0.80;;;;;;;;;;8224724;28;20053;-73
2021/09/24 03:08:50;;;;;;;1.88;0.80;;;;;;;;;;8240340;28;20495;-74
2021/09/24 03:12:55;;;;;;;2.50;0.93;;;;;;;;;;8227514;28;20068;-73
2021/09/24 03:17:00;;;;;;;1.90;0.90;;;;;;;;;;8225407;28;20469;-74
2021/09/24 03:21:05;;;;;;;3.25;1.00;;;;;;;;;;8223719;28;20064;-74
2021/09/24 03:25:11;;;;;;;3.60;0.82;;;;;;;;;;8223117;28;20380;-73
2021/09/24 03:29:16;;;;;;;3.20;1.02;;;;;;;;;;8239617;28;20045;-73
2021/09/24 03:33:21;;;;;;;2.67;0.90;;;;;;;;;;8230087;28;20071;-74
2021/09/24 03:37:27;;;;;;;3.53;0.85;;;;;;;;;;8232765;28;20337;-73
2021/09/24 03:41:33;;;;;;;2.92;1.13;;;;;;;;;;8230765;28;20053;-74
2021/09/24 03:45:38;;;;;;;2.22;0.80;;;;;;;;;;8229920;28;20053;-75
2021/09/24 03:49:43;;;;;;;2.05;0.88;;;;;;;;;;8227732;28;20364;-74
2021/09/24 03:53:48;;;;;;;4.47;1.00;;;;;;;;;;8214667;28;20397;-76
2021/09/24 03:58:04;;;;;;;4.75;0.93;;;;;;;;;;7908439;28;20004678;-75
2021/09/24 04:02:09;;;;;;;5.97;1.45;;;;;;;;;;8231515;28;20729;-75
2021/09/24 04:06:15;;;;;;;4.53;1.27;;;;;;;;;;8230859;28;20361;-74
2021/09/24 04:10:20;;;;;;;4.88;0.98;;;;;;;;;;8244259;28;20407;-74
2021/09/24 04:14:25;;;;;;;3.63;1.10;;;;;;;;;;8229466;28;20041;-73
2021/09/24 04:18:30;;;;;;;3.08;0.90;;;;;;;;;;8231084;28;20491;-74
2021/09/24 04:22:36;;;;;;;1.98;0.90;;;;;;;;;;8230358;28;20484;-73
2021/09/24 04:26:41;;;;;;;5.75;1.08;;;;;;;;;;8228582;28;20437;-75
2021/09/24 04:30:46;;;;;;;2.78;0.90;;;;;;;;;;8228457;28;20480;-74
2021/09/24 04:34:51;;;;;;;4.57;1.08;;;;;;;;;;8229532;28;20338;-74
2021/09/24 04:38:57;;;;;;;7.80;1.10;;;;;;;;;;8229355;28;20485;-73
2021/09/24 04:43:03;;;;;;;4.70;1.38;;;;;;;;;;8228195;28;20387;-75
2021/09/24 04:47:08;;;;;;;5.97;1.10;;;;;;;;;;8228935;28;20494;-75
2021/09/24 04:51:13;;;;;;;3.75;1.15;;;;;;;;;;8230673;28;20076;-76
2021/09/24 04:55:20;;;;;;;6.57;1.15;;;;;;;;;;8227823;28;20461;-74
2021/09/24 04:59:29;;;;;;;6.47;1.30;;;;;;;;;;8227549;28;20408;-73
2021/09/24 05:03:34;;;;;;;4.32;0.88;;;;;;;;;;8227147;28;20049;-74
2021/09/24 05:07:40;;;;;;;5.57;1.27;;;;;;;;;;8225397;28;20450;-74
2021/09/24 05:11:45;;;;;;;5.80;1.33;;;;;;;;;;8226933;28;20353;-73
2021/09/24 05:15:50;;;;;;;4.25;1.20;;;;;;;;;;8227530;28;20524;-74
2021/09/24 05:19:55;;;;;;;4.00;1.20;;;;;;;;;;8228340;28;20060;-73
2021/09/24 05:35:30;;;;;;;3.78;1.25;;;;;;;;;;8334994;27;1471307;-73
2021/09/24 05:39:34;;;;;;;6.40;1.08;;;;;;;;;;8335259;28;20332;-74
2021/09/24 05:43:40;;;;;;;3.03;1.27;;;;;;;;;;8334174;28;20377;-75
2021/09/24 05:47:45;;;;;;;6.13;1.20;;;;;;;;;;8350788;28;20095;-74
2021/09/24 05:51:50;;;;;;;6.10;1.45;;;;;;;;;;8351982;28;20452;-75
2021/09/24 05:55:55;;;;;;;7.90;2.00;;;;;;;;;;8332920;28;20379;-73
2021/09/24 06:00:00;;;;;;;9.55;1.58;;;;;;;;;;8351590;28;20348;-75
2021/09/24 06:04:19;;;;;;;5.60;1.67;;;;;;;;;;8351243;28;20474;-74
2021/09/24 06:08:24;;;;;;;9.90;1.70;;;;;;;;;;8350607;28;20344;-73
2021/09/24 06:12:29;;;;;;;10.30;1.60;;;;;;;;;;8351356;28;20450;-76
2021/09/24 06:16:34;;;;;;;7.78;1.50;;;;;;;;;;8352010;28;20371;-74
2021/09/24 06:20:39;;;;;;;7.97;1.35;;;;;;;;;;8350396;28;20062;-74
2021/09/24 06:24:46;;;;;;;5.03;1.48;;;;;;;;;;8351362;28;20359;-74
2021/09/24 06:28:51;;;;;;;6.65;1.25;;;;;;;;;;8334027;28;20447;-75
2021/09/24 06:32:56;;;;;;;6.60;1.27;;;;;;;;;;8329381;28;20379;-75
2021/09/24 06:37:01;;;;;;;7.97;1.60;;;;;;;;;;8327429;28;20344;-76
2021/09/24 06:41:07;;;;;;;9.65;1.75;;;;;;;;;;8328191;28;20478;-74
2021/09/24 06:45:13;;;;;;;9.18;1.35;;;;;;;;;;8310010;28;20501;-74
2021/09/24 06:49:20;;;;;;;7.88;1.52;;;;;;;;;;8328905;28;20332;-73
2021/09/24 06:53:28;;;;;;;6.03;1.50;;;;;;;;;;8326402;28;20423;-74
2021/09/24 06:57:33;;;;;;;5.95;1.42;;;;;;;;;;8310026;28;20070;-73
2021/09/24 07:01:39;;;;;;;10.65;1.60;;;;;;;;;;8327287;28;20514;-74
2021/09/24 07:05:44;;;;;;;6.25;2.15;;;;;;;;;;8328744;28;20043;-74
2021/09/24 07:09:49;;;;;;;8.32;1.48;;;;;;;;;;8327241;28;20414;-73
2021/09/24 07:13:55;;;;;;;13.25;1.50;;;;;;;;;;8329301;28;20345;-74
2021/09/24 07:18:00;;;;;;;8.77;1.40;;;;;;;;;;8326375;28;20048;-75
2021/09/24 07:22:05;;;;;;;6.25;1.20;;;;;;;;;;8327984;28;20481;-73
2021/09/24 07:26:10;;;;;;;6.43;1.02;;;;;;;;;;8325998;28;20475;-74
2021/09/24 07:30:15;;;;;;;6.20;0.98;;;;;;;;;;8309241;28;20471;-73
2021/09/24 07:34:21;;;;;;;10.38;2.40;;;;;;;;;;8327830;28;20471;-74
2021/09/24 07:38:26;;;;;;;4.28;1.50;;;;;;;;;;8326963;28;20481;-74
2021/09/24 07:42:32;;;;;;;5.50;1.27;;;;;;;;;;8310571;28;20333;-73
2021/09/24 07:46:37;;;;;;;11.98;1.33;;;;;;;;;;8308673;28;20040;-72
2021/09/24 07:50:42;;;;;;;9.25;1.70;;;;;;;;;;8329069;28;20456;-74
2021/09/24 07:54:48;;;;;;;4.63;1.15;;;;;;;;;;8328986;28;20103;-74
2021/09/24 07:58:53;;;;;;;8.85;1.70;;;;;;;;;;8325989;28;20604;-74
2021/09/24 08:02:58;;;;;;;6.05;1.30;;;;;;;;;;8327259;28;20478;-73
2021/09/24 08:07:06;;;;;;;10.48;1.63;;;;;;;;;;8310894;28;20340;-73
2021/09/24 08:11:12;;;;;;;6.15;1.45;;;;;;;;;;8309613;28;20348;-74
2021/09/24 08:15:18;;;;;;;5.82;0.98;;;;;;;;;;8310183;28;20485;-74
2021/09/24 08:19:23;;;;;;;5.53;1.17;;;;;;;;;;8327857;28;20459;-74
2021/09/24 08:23:29;;;;;;;4.93;1.40;;;;;;;;;;8328767;28;20145;-74
2021/09/24 08:27:35;;;;;;;6.80;1.45;;;;;;;;;;8310863;28;20044;-74
2021/09/24 08:31:40;;;;;;;3.70;1.10;;;;;;;;;;8308897;28;20486;-75
2021/09/24 08:35:45;;;;;;;12.13;1.42;;;;;;;;;;8309260;28;20361;-74
2021/09/24 08:39:50;;;;;;;11.38;1.75;;;;;;;;;;8307795;28;20498;-74
2021/09/24 08:43:58;;;;;;;7.97;1.35;;;;;;;;;;8326503;28;20343;-76
2021/09/24 08:48:06;;;;;;;;;;;;;;;;;;8325894;28;20044;-75
2021/09/24 08:52:12;;;;;;;3.60;0.90;;;;;;;;;;8309877;28;20372;-75
2021/09/24 08:56:17;;;;;;;8.10;1.20;;;;;;;;;;8324972;28;20044;-74
2021/09/24 09:00:23;;;;;;;7.47;2.25;;;;;;;;;;8329308;28;20524;-73
2021/09/24 09:04:46;;;;;;;4.25;1.20;;;;;;;;;;8306673;28;20367;-73
2021/09/24 09:08:53;;;;;;;2.75;1.20;;;;;;;;;;8307272;28;20452;-74
2021/09/24 09:13:05;;;;;;;6.82;1.95;;;;;;;;;;8306394;28;20058;-76
2021/09/24 09:17:31;;;;;;;6.85;1.10;;;;;;;;;;8309488;28;20344;-74
2021/09/24 09:21:42;;;;;;;5.57;1.23;;;;;;;;;;8329341;28;20471;-75
2021/09/24 09:25:49;;;;;;;5.00;1.15;;;;;;;;;;8312864;28;20048;-76
2021/09/24 09:30:12;;;;;;;3.13;0.88;;;;;;;;;;8333617;28;20354;-76
2021/09/24 09:34:34;;;;;;;5.07;1.48;;;;;;;;;;8323328;28;20460;-73
2021/09/24 09:38:43;;;;;;;8.50;1.55;;;;;;;;;;8292000;28;20062;-75
2021/09/24 09:42:54;;;;;;;5.20;1.30;;;;;;;;;;8291333;28;20483;-74
2021/09/24 09:47:00;;;;;;;2.97;1.50;;;;;;;;;;8329002;28;20367;-76
2021/09/24 09:51:06;;;;;;;10.93;2.42;;;;;;;;;;8307594;28;20451;-76
2021/09/24 09:55:12;;;;;;;7.10;1.60;;;;;;;;;;8326457;28;20417;-74
2021/09/24 09:59:32;;;;;;;6.38;1.45;;;;;;;;;;8308245;28;20044;-76
2021/09/24 10:03:42;;;;;;;5.15;1.55;;;;;;;;;;8322978;28;20074;-75
2021/09/24 10:07:48;;;;;;;4.57;1.27;;;;;;;;;;8323142;28;20348;-74
2021/09/24 10:11:53;;;;;;;8.45;2.83;;;;;;;;;;8330612;28;20078;-75
2021/09/24 10:15:59;;;;;;;9.60;1.67;;;;;;;;;;8311383;28;20048;-76
2021/09/24 10:20:08;;;;;;;3.10;1.60;;;;;;;;;;8328124;28;20490;-74
2021/09/24 10:24:13;;;;;;;4.88;1.25;;;;;;;;;;8294257;28;20328;-76
2021/09/24 10:28:19;;;;;;;6.70;2.10;;;;;;;;;;8328474;28;20036;-75
2021/09/24 10:32:28;;;;;;;4.78;1.48;;;;;;;;;;8327628;28;20048;-75
2021/09/24 10:37:06;;;;;;;5.47;1.10;;;;;;;;;;8312132;28;20379;-74
2021/09/24 10:41:14;;;;;;;6.27;1.77;;;;;;;;;;8299046;28;20051;-74
2021/09/24 10:45:41;;;;;;;4.10;1.38;;;;;;;;;;8310925;28;20056;-74
2021/09/24 10:49:47;;;;;;;6.18;1.27;;;;;;;;;;8328021;28;20048;-74
2021/09/24 10:54:17;;;;;;;5.95;1.58;;;;;;;;;;8310363;28;20375;-74
2021/09/24 10:58:28;;;;;;;8.75;2.25;;;;;;;;;;8309571;28;20475;-74
2021/09/24 11:02:41;;;;;;;3.83;1.15;;;;;;;;;;8326892;28;20359;-76
2021/09/24 11:06:52;;;;;;;9.45;1.75;;;;;;;;;;8327261;28;20489;-76
2021/09/24 11:11:14;;;;;;;7.32;1.50;;;;;;;;;;8309838;28;20467;-75
2021/09/24 11:15:19;;;;;;;4.53;1.52;;;;;;;;;;8308790;28;20387;-74
2021/09/24 11:19:43;;;;;;;5.88;1.25;;;;;;;;;;8308629;28;20483;-74
2021/09/24 11:23:53;;;;;;;4.60;1.23;;;;;;;;;;8326611;28;20491;-75
2021/09/24 11:28:00;;;;;;;2.78;1.05;;;;;;;;;;8291825;28;20367;-76
2021/09/24 11:32:10;;;;;;;3.08;1.13;;;;;;;;;;8326515;28;20445;-75
2021/09/24 11:36:58;;;;;;;7.82;1.30;;;;;;;;;;8328783;28;20455;-76
2021/09/24 11:41:05;;;;;;;5.07;1.58;;;;;;;;;;8328070;28;20494;-76
2021/09/24 11:45:15;;;;;;;3.63;1.10;;;;;;;;;;8325477;28;20044;-75
2021/09/24 11:49:20;;;;;;;4.75;1.50;;;;;;;;;;8326973;28;20344;-75
2021/09/24 11:53:26;;;;;;;7.47;1.50;;;;;;;;;;8327512;28;20475;-76
2021/09/24 11:57:31;;;;;;;3.97;1.30;;;;;;;;;;8326221;28;20386;-76
2021/09/24 12:01:41;;;;;;;3.95;1.33;;;;;;;;;;8325187;28;20036;-74
2021/09/24 12:05:53;;;;;;;6.60;1.38;;;;;;;;;;8326366;28;20379;-74
2021/09/24 12:10:06;;;;;;;3.67;1.30;;;;;;;;;;8327278;28;20362;-75
2021/09/24 12:14:11;;;;;;;6.03;1.45;;;;;;;;;;8294627;28;20353;-73
2021/09/24 12:18:17;;;;;;;7.05;1.52;;;;;;;;;;8307072;28;20382;-75
2021/09/24 12:22:23;;;;;;;5.85;1.25;;;;;;;;;;8306533;28;20040;-75
2021/09/24 12:26:37;;;;;;;6.00;1.63;;;;;;;;;;8306706;28;20475;-75
2021/09/24 12:30:43;;;;;;;5.38;1.35;;;;;;;;;;8306415;28;20378;-76
2021/09/24 12:34:54;;;;;;;5.00;1.33;;;;;;;;;;8324589;28;20362;-75
2021/09/24 12:39:20;;;;;;;5.03;1.40;;;;;;;;;;8307238;28;20479;-76
2021/09/24 12:43:36;;;;;;;4.43;1.88;;;;;;;;;;8306829;28;20067;-74
2021/09/24 12:47:41;;;;;;;6.30;1.42;;;;;;;;;;8305284;28;20363;-74
2021/09/24 12:51:47;;;;;;;9.57;1.38;;;;;;;;;;8325187;28;20059;-74
2021/09/24 12:55:52;;;;;;;12.82;1.63;;;;;;;;;;8288095;28;20052;-75
2021/09/24 13:00:07;;;;;;;8.60;2.30;;;;;;;;;;8272721;28;20391;-74
2021/09/24 13:04:12;;;;;;;5.95;1.23;;;;;;;;;;8326204;28;20401;-76
2021/09/24 13:08:20;;;;;;;7.97;1.85;;;;;;;;;;8327242;28;20493;-76
2021/09/24 13:12:25;;;;;;;6.80;1.57;;;;;;;;;;8307992;28;20362;-74
2021/09/24 13:16:34;;;;;;;5.22;1.35;;;;;;;;;;8325848;28;20372;-73
2021/09/24 13:20:39;;;;;;;3.83;1.42;;;;;;;;;;8307995;28;20073;-76
2021/09/24 13:24:45;;;;;;;9.60;2.30;;;;;;;;;;8324768;28;20355;-76
2021/09/24 13:28:50;;;;;;;7.10;1.75;;;;;;;;;;8324885;28;20340;-74
2021/09/24 13:32:55;;;;;;;5.07;1.45;;;;;;;;;;8325862;28;20489;-76
2021/09/24 13:37:01;;;;;;;3.28;1.25;;;;;;;;;;8324000;28;20367;-75
2021/09/24 13:41:06;;;;;;;7.70;2.15;;;;;;;;;;8323590;28;20482;-75
2021/09/24 13:45:12;;;;;;;5.55;1.70;;;;;;;;;;8327007;28;20048;-74
2021/09/24 13:49:17;;;;;;;8.57;2.30;;;;;;;;;;8314729;28;20475;-76
2021/09/24 13:53:30;;;;;;;7.25;1.75;;;;;;;;;;8313117;28;20367;-74
2021/09/24 13:57:36;;;;;;;12.52;3.35;;;;;;;;;;8331584;28;20576;-74
2021/09/24 14:01:41;;;;;;;11.43;2.58;;;;;;;;;;8331003;28;20482;-77
2021/09/24 14:05:46;;;;;;;8.35;2.33;;;;;;;;;;8312069;28;20052;-77
2021/09/24 14:09:52;;;;;;;6.60;1.67;;;;;;;;;;8312899;28;20493;-76
2021/09/24 14:13:57;;;;;;;10.35;2.17;;;;;;;;;;8329313;28;20052;-76
2021/09/24 14:18:03;;;;;;;8.70;1.88;;;;;;;;;;8312569;28;20351;-75
2021/09/24 14:22:08;;;;;;;9.80;1.75;;;;;;;;;;8334124;28;20367;-75
2021/09/24 14:26:13;;;;;;;11.00;2.20;;;;;;;;;;8330669;28;20451;-75
2021/09/24 14:30:21;;;;;;;8.50;1.98;;;;;;;;;;8313551;28;20340;-76
2021/09/24 14:34:26;;;;;;;7.70;1.70;;;;;;;;;;8310415;28;20378;-75
2021/09/24 14:38:31;;;;;;;11.43;2.10;;;;;;;;;;8311986;28;20395;-75
2021/09/24 14:42:37;;;;;;;11.52;2.08;;;;;;;;;;8311383;28;20517;-76
2021/09/24 14:46:42;;;;;;;11.93;2.15;;;;;;;;;;8331180;28;20356;-75
2021/09/24 14:50:47;;;;;;;14.55;1.98;;;;;;;;;;8331399;28;20471;-75
2021/09/24 14:54:52;;;;;;;10.32;2.35;;;;;;;;;;8310793;28;20485;-74
2021/09/24 14:58:57;;;;;;;9.20;2.10;;;;;;;;;;8293523;28;20451;-75
2021/09/24 15:03:03;;;;;;;16.17;2.90;;;;;;;;;;8294449;28;20044;-73
2021/09/24 15:07:09;;;;;;;6.88;1.90;;;;;;;;;;8309967;28;20799;-74
2021/09/24 15:11:14;;;;;;;13.57;2.22;;;;;;;;;;8308701;28;20371;-75
2021/09/24 15:15:22;;;;;;;12.10;2.50;;;;;;;;;;8328087;28;20448;-76
2021/09/24 15:19:28;;;;;;;6.07;1.83;;;;;;;;;;8278756;28;20341;-74
2021/09/24 15:23:37;;;;;;;5.53;1.75;;;;;;;;;;8309257;28;20374;-77
2021/09/24 15:27:46;;;;;;;8.82;2.15;;;;;;;;;;8327792;28;20397;-76
2021/09/24 15:31:53;;;;;;;9.43;2.28;;;;;;;;;;8323641;28;20056;-75
2021/09/24 15:35:57;;;;;;;8.25;2.40;;;;;;;;;;8306408;28;20383;-75
2021/09/24 15:40:04;;;;;;;13.23;2.38;;;;;;;;;;8308380;28;20363;-75
2021/09/24 15:44:10;;;;;;;11.03;2.50;;;;;;;;;;8307552;28;20371;-75
2021/09/24 15:48:16;;;;;;;13.35;3.05;;;;;;;;;;8307770;28;20355;-76
2021/09/24 15:52:21;;;;;;;10.13;2.67;;;;;;;;;;8308250;28;20478;-75
2021/09/24 15:56:36;;;;;;;12.60;3.08;;;;;;;;;;8324482;28;20462;-74
2021/09/24 16:00:44;;;;;;;15.55;3.40;;;;;;;;;;8290885;28;20373;-76
2021/09/24 16:04:49;;;;;;;13.57;3.05;;;;;;;;;;8307114;28;20345;-75
2021/09/24 16:08:55;;;;;;;8.23;2.47;;;;;;;;;;8323435;28;20358;-76
2021/09/24 16:13:00;;;;;;;13.73;3.42;;;;;;;;;;8307554;28;20475;-75
2021/09/24 16:17:07;;;;;;;25.58;7.65;;;;;;;;;;8306988;28;20066;-76
2021/09/24 16:21:10;;;;;;;17.25;5.72;;;;;;;;;;8306712;28;20472;-77
2021/09/24 16:25:15;;;;;;;13.23;3.55;;;;;;;;;;8324781;28;20467;-76
2021/09/24 16:29:21;;;;;;;15.10;4.20;;;;;;;;;;8306740;28;20341;-75
2021/09/24 16:33:27;;;;;;;14.20;4.03;;;;;;;;;;8305211;28;20353;-75
2021/09/24 16:37:32;;;;;;;16.23;3.13;;;;;;;;;;8324152;28;20455;-75
2021/09/24 16:41:38;;;;;;;16.73;3.25;;;;;;;;;;8324509;28;20490;-75
2021/09/24 16:45:49;;;;;;;17.85;8.07;;;;;;;;;;8306608;28;20467;-76
2021/09/24 16:49:52;;;;;;;28.65;11.48;;;;;;;;;;8297972;28;20463;-76
2021/09/24 16:53:56;;;;;;;21.60;8.27;;;;;;;;;;8305712;28;20478;-76
2021/09/24 16:58:03;;;;;;;30.77;11.35;;;;;;;;;;8305848;28;20452;-76
2021/09/24 17:02:06;;;;;;;26.40;9.27;;;;;;;;;;8307335;28;20383;-76
2021/09/24 17:06:11;;;;;;;23.20;7.00;;;;;;;;;;8306007;28;20044;-76
2021/09/24 17:10:15;;;;;;;16.45;5.07;;;;;;;;;;8295835;28;20450;-76
2021/09/24 17:14:19;;;;;;;28.50;5.50;;;;;;;;;;8287332;28;20070;-75
2021/09/24 17:18:23;;;;;;;12.90;3.60;;;;;;;;;;8304595;28;20335;-76
2021/09/24 17:22:27;;;;;;;35.03;10.45;;;;;;;;;;8289952;28;20469;-76
2021/09/24 17:26:31;;;;;;;54.30;15.98;;;;;;;;;;8297605;28;20059;-75
2021/09/24 17:30:36;;;;;;;25.98;7.88;;;;;;;;;;8290236;28;20479;-75
2021/09/24 17:34:39;;;;;;;21.95;7.97;;;;;;;;;;8312718;28;20380;-75
2021/09/24 17:38:47;;;;;;;25.52;7.40;;;;;;;;;;8299744;28;20451;-75
2021/09/24 17:42:52;;;;;;;21.45;5.32;;;;;;;;;;8289188;28;20456;-76
2021/09/24 17:46:56;;;;;;;25.17;7.22;;;;;;;;;;8291105;28;20471;-75
2021/09/24 17:51:03;;;;;;;20.73;4.88;;;;;;;;;;8304339;28;20063;-76
2021/09/24 17:55:13;;;;;;;13.38;3.95;;;;;;;;;;8300272;28;20435;-76
2021/09/24 17:59:17;;;;;;;12.50;3.13;;;;;;;;;;8303147;28;20040;-75
2021/09/24 18:03:22;;;;;;;20.10;4.70;;;;;;;;;;8300540;28;20345;-76
2021/09/24 18:07:28;;;;;;;11.18;4.03;;;;;;;;;;8303931;28;20071;-76
2021/09/24 18:11:34;;;;;;;12.35;4.13;;;;;;;;;;8272484;28;20049;-76
2021/09/24 18:15:40;;;;;;;14.27;4.15;;;;;;;;;;8288484;28;20467;-76
2021/09/24 18:19:46;;;;;;;14.13;4.50;;;;;;;;;;8272802;28;20370;-76
2021/09/24 18:23:51;;;;;;;13.57;4.85;;;;;;;;;;8289676;28;20364;-76
2021/09/24 18:27:56;;;;;;;10.48;4.90;;;;;;;;;;8272480;28;20336;-76
2021/09/24 18:32:01;;;;;;;15.98;4.57;;;;;;;;;;8298017;28;20486;-76
2021/09/24 18:36:08;;;;;;;17.27;6.30;;;;;;;;;;8309127;28;20482;-76
2021/09/24 18:40:15;;;;;;;20.13;8.60;;;;;;;;;;8327060;28;20485;-76
2021/09/24 18:44:21;;;;;;;30.60;10.85;;;;;;;;;;8301641;28;20048;-76
2021/09/24 18:48:25;;;;;;;70.88;16.83;;;;;;;;;;8325423;28;20454;-75
2021/09/24 18:52:29;;;;;;;177.13;39.00;;;;;;;;;;8354631;28;20047;-76
2021/09/24 18:56:34;;;;;;;213.63;42.78;;;;;;;;;;8354403;28;20465;-75
2021/09/24 19:00:39;;;;;;;195.10;43.67;;;;;;;;;;8326736;28;20048;-75
2021/09/24 19:04:45;;;;;;;206.93;45.80;;;;;;;;;;8339734;28;20459;-75
2021/09/24 19:08:50;;;;;;;195.27;40.42;;;;;;;;;;8326865;28;20393;-75
2021/09/24 19:12:55;;;;;;;150.13;41.53;;;;;;;;;;8328471;28;20040;-75
2021/09/24 19:17:01;;;;;;;117.85;31.50;;;;;;;;;;8292476;28;20496;-76
2021/09/24 19:21:07;;;;;;;206.55;40.67;;;;;;;;;;8308354;28;20052;-75
2021/09/24 19:25:14;;;;;;;320.67;59.70;;;;;;;;;;8292688;28;20352;-76
2021/09/24 19:29:19;;;;;;;251.25;47.13;;;;;;;;;;8308572;28;20467;-76
2021/09/24 19:33:24;;;;;;;223.45;40.10;;;;;;;;;;8309205;28;20067;-77
2021/09/24 19:37:28;;;;;;;102.75;26.27;;;;;;;;;;8317070;28;20074;-76
2021/09/24 19:41:36;;;;;;;122.55;27.98;;;;;;;;;;8326965;28;20428;-77
2021/09/24 19:45:41;;;;;;;122.82;29.23;;;;;;;;;;8278404;28;20062;-75
2021/09/24 19:49:47;;;;;;;80.85;18.50;;;;;;;;;;8303419;28;20037;-75
2021/09/24 19:53:52;;;;;;;85.75;23.40;;;;;;;;;;8307910;28;20371;-76
2021/09/24 19:57:56;;;;;;;94.88;22.70;;;;;;;;;;8297509;28;20456;-75
2021/09/24 20:02:02;;;;;;;75.68;18.08;;;;;;;;;;8325705;28;20490;-76
2021/09/24 20:06:08;;;;;;;23.63;7.60;;;;;;;;;;8326223;28;20353;-76
2021/09/24 20:10:12;;;;;;;35.33;7.53;;;;;;;;;;8323631;28;20337;-76
2021/09/24 20:14:16;;;;;;;25.92;5.57;;;;;;;;;;8309363;28;20062;-77
2021/09/24 20:18:20;;;;;;;14.38;5.72;;;;;;;;;;8291639;28;20066;-76
2021/09/24 20:22:25;;;;;;;13.75;4.10;;;;;;;;;;8290684;28;20427;-75
2021/09/24 20:26:34;;;;;;;20.92;5.18;;;;;;;;;;8289088;28;20066;-76
2021/09/24 20:30:40;;;;;;;15.95;5.75;;;;;;;;;;8260229;28;20440;-76
2021/09/24 20:34:44;;;;;;;14.15;5.18;;;;;;;;;;8292249;28;20059;-76
2021/09/24 20:38:47;;;;;;;22.45;6.75;;;;;;;;;;8304283;28;20044;-76
2021/09/24 20:42:51;;;;;;;29.63;7.85;;;;;;;;;;8273061;28;20352;-76
2021/09/24 20:46:58;;;;;;;29.10;8.55;;;;;;;;;;8290599;28;20384;-76
2021/09/24 20:51:04;;;;;;;19.35;8.93;;;;;;;;;;8291327;28;20376;-76
2021/09/24 20:55:11;;;;;;;24.85;14.00;;;;;;;;;;8289617;28;20052;-75
2021/09/24 20:59:16;;;;;;;14.27;5.50;;;;;;;;;;8291097;28;20040;-76
2021/09/24 21:03:23;;;;;;;14.93;8.15;;;;;;;;;;8289554;28;20506;-76
2021/09/24 21:07:28;;;;;;;18.15;6.25;;;;;;;;;;8273791;28;20353;-75
2021/09/24 21:11:34;;;;;;;25.00;7.15;;;;;;;;;;8292118;28;20357;-76
2021/09/24 21:15:39;;;;;;;19.42;8.15;;;;;;;;;;8258748;28;20476;-75
2021/09/24 21:19:45;;;;;;;69.95;29.33;;;;;;;;;;8225346;28;20041;-76
2021/09/24 21:23:50;;;;;;;64.38;30.73;;;;;;;;;;8211603;28;20372;-76
2021/09/24 21:27:55;;;;;;;75.05;35.15;;;;;;;;;;8225115;28;20511;-76
2021/09/24 21:32:01;;;;;;;32.72;15.65;;;;;;;;;;8205350;28;20389;-75
2021/09/24 21:36:06;;;;;;;42.60;13.93;;;;;;;;;;8173501;28;20500;-76
2021/09/24 21:40:12;;;;;;;15.02;5.13;;;;;;;;;;8193366;28;20361;-76
2021/09/24 21:44:17;;;;;;;13.55;4.18;;;;;;;;;;8191575;28;20377;-76
2021/09/24 21:48:22;;;;;;;11.65;4.60;;;;;;;;;;8174416;28;20500;-76
2021/09/24 21:52:28;;;;;;;12.13;3.97;;;;;;;;;;8177283;28;20389;-76
2021/09/24 21:56:32;;;;;;;8.98;3.65;;;;;;;;;;8220483;28;20045;-76
2021/09/24 22:00:36;;;;;;;11.18;4.05;;;;;;;;;;8220888;28;20056;-76
2021/09/24 22:04:40;;;;;;;12.48;3.60;;;;;;;;;;8207065;28;20508;-77
2021/09/24 22:08:45;;;;;;;10.43;3.28;;;;;;;;;;8232050;28;20467;-77
2021/09/24 22:12:49;;;;;;;9.05;4.00;;;;;;;;;;8229144;28;20342;-76
2021/09/24 22:16:54;;;;;;;12.88;4.65;;;;;;;;;;8231173;28;20492;-76
2021/09/24 22:20:59;;;;;;;13.73;4.40;;;;;;;;;;8223588;28;20441;-76
2021/09/24 22:25:06;;;;;;;19.98;6.55;;;;;;;;;;8212945;28;20483;-76
2021/09/24 22:29:12;;;;;;;12.60;4.15;;;;;;;;;;8229490;28;20527;-76
2021/09/24 22:33:16;;;;;;;13.82;4.82;;;;;;;;;;8177448;28;20084;-76
2021/09/24 22:37:20;;;;;;;12.20;4.35;;;;;;;;;;8227974;28;20068;-76
2021/09/24 22:41:25;;;;;;;11.73;4.60;;;;;;;;;;8169043;28;20104;-76
2021/09/24 22:45:30;;;;;;;15.20;5.95;;;;;;;;;;8230251;28;20465;-75
2021/09/24 22:49:35;;;;;;;20.67;7.90;;;;;;;;;;8227942;28;20488;-76
2021/09/24 22:53:41;;;;;;;27.52;15.98;;;;;;;;;;8228868;28;20376;-76
2021/09/24 22:57:46;;;;;;;14.35;6.07;;;;;;;;;;8211181;28;20361;-76
2021/09/24 23:01:51;;;;;;;17.67;8.65;;;;;;;;;;8228353;28;20376;-77
2021/09/24 23:05:56;;;;;;;15.50;8.50;;;;;;;;;;8229168;28;20453;-75
2021/09/24 23:10:01;;;;;;;19.10;9.30;;;;;;;;;;8240841;28;20485;-76
2021/09/24 23:14:08;;;;;;;11.80;4.75;;;;;;;;;;8260802;28;20059;-75
2021/09/24 23:18:13;;;;;;;10.52;3.67;;;;;;;;;;8242032;28;20400;-76
2021/09/24 23:22:17;;;;;;;11.43;3.90;;;;;;;;;;8260439;28;20067;-76
2021/09/24 23:26:22;;;;;;;13.57;4.55;;;;;;;;;;8260084;28;20375;-77
2021/09/24 23:30:26;;;;;;;19.05;5.30;;;;;;;;;;8259864;28;20484;-76
2021/09/24 23:34:31;;;;;;;13.60;6.40;;;;;;;;;;8240738;28;20488;-76
2021/09/24 23:38:36;;;;;;;9.15;3.85;;;;;;;;;;8240330;28;20475;-76
2021/09/24 23:42:40;;;;;;;9.38;3.78;;;;;;;;;;8189916;28;20045;-76
2021/09/24 23:46:44;;;;;;;11.05;3.75;;;;;;;;;;8185950;28;20068;-76
2021/09/24 23:50:49;;;;;;;9.57;4.32;;;;;;;;;;8195749;28;20046;-75
2021/09/24 23:54:54;;;;;;;12.00;4.63;;;;;;;;;;8195553;28;20368;-76
2021/09/24 23:58:58;;;;;;;13.80;4.20;;;;;;;;;;8176937;28;20333;-77
